Weather at Stroma Airstrip [CLOSED]

Public forecast

Using degrees Celsius for public forecast. Weather courtesy of forecast.io.

Closest aviation weather report (METAR) to Stroma Airstrip

Closest report is Wick Airport, 12.9 nm (23.9 km) S.

2024/06/14 12:50 (retrieved 18 minutes ago)

EGPC 141250Z 11009KT 9999 FEW008 SCT021 12/11 Q0995

Closest aviation forecast (TAF) to Stroma Airstrip

Closest forecast is RAF Lossiemouth, 58.5 nm (108.3 km) S.

2024/06/14 12:23 Ammendment (retrieved 45 minutes ago)

TAF AMD EGQS 141216Z 1412/1506 11006KT 9999 FEW018 SCT038 TEMPO 1412/1422 7000 SHRA PROB40 TEMPO 1412/1421 4000 +SHRA +TSRA SCT018CB